Time;durP1;ratioP1;P1;durP2;ratioP2;P2;SDS_P1;SDS_P2;PMS_P1;PMS_P2;Temp;Humidity;BMP_temperature;BMP_pressure;BME280_temperature;BME280_humidity;BME280_pressure;Samples;Min_cycle;Max_cycle;Signal;HPM_P1;HPM_P2
2023/03/14 00:03:52;;;;;;;21.52;5.68;;;;;;;;;;5016971;28;20033;-67
2023/03/14 00:06:19;;;;;;;20.52;5.43;;;;;;;;;;5015833;28;20845;-67
2023/03/14 00:08:44;;;;;;;21.23;4.55;;;10.70;99.90;;;;;;5008158;28;20041;-67
2023/03/14 00:11:15;;;;;;;26.33;5.82;;;;;;;;;;5006582;28;20041;-67
2023/03/14 00:13:42;;;;;;;25.77;5.13;;;;;;;;;;5008044;28;20035;-68
2023/03/14 00:16:09;;;;;;;19.83;5.20;;;;;;;;;;5010728;28;20045;-68
2023/03/14 00:18:35;;;;;;;21.35;5.15;;;11.00;99.90;;;;;;5013962;28;20048;-67
2023/03/14 00:21:02;;;;;;;19.98;4.30;;;;;;;;;;5013085;28;20060;-68
2023/03/14 00:23:28;;;;;;;24.30;4.28;;;;;;;;;;5012661;28;20064;-68
2023/03/14 00:25:58;;;;;;;16.50;4.32;;;;;;;;;;5012185;28;20499;-67
2023/03/14 00:28:24;;;;;;;20.55;5.32;;;;;;;;;;5013543;28;20377;-68
2023/03/14 00:30:50;;;;;;;18.83;4.78;;;11.10;99.90;;;;;;5003272;28;20298;-67
2023/03/14 00:33:16;;;;;;;22.80;4.78;;;;;;;;;;5005117;28;20407;-67
2023/03/14 00:35:42;;;;;;;19.63;4.07;;;;;;;;;;5006806;28;20048;-67
2023/03/14 00:38:08;;;;;;;16.80;4.38;;;;;;;;;;5006584;28;20081;-67
2023/03/14 00:40:34;;;;;;;17.95;4.90;;;;;;;;;;5008124;28;20037;-67
2023/03/14 00:43:00;;;;;;;20.90;5.47;;;;;;;;;;5014494;28;20486;-67
2023/03/14 00:45:25;;;;;;;20.10;4.28;;;11.20;99.90;;;;;;5012432;28;20100;-67
2023/03/14 00:47:51;;;;;;;22.40;4.88;;;;;;;;;;5019471;28;20123;-67
2023/03/14 00:50:17;;;;;;;24.75;4.60;;;;;;;;;;5009324;28;20041;-67
2023/03/14 00:52:43;;;;;;;18.38;4.35;;;;;;;;;;5010266;28;20050;-67
2023/03/14 00:55:09;;;;;;;21.10;4.43;;;;;;;;;;5004300;28;20042;-67
2023/03/14 00:57:35;;;;;;;17.98;5.03;;;;;;;;;;5005306;28;20057;-67
2023/03/14 01:00:01;;;;;;;23.17;5.75;;;10.90;99.90;;;;;;5004280;28;20416;-67
2023/03/14 01:02:27;;;;;;;20.50;5.25;;;;;;;;;;5003891;28;20049;-67
2023/03/14 01:04:52;;;;;;;15.57;4.10;;;;;;;;;;5012614;28;20045;-67
2023/03/14 01:07:18;;;;;;;20.83;4.97;;;;;;;;;;5015150;28;20046;-67
2023/03/14 01:09:44;;;;;;;20.63;4.55;;;;;;;;;;5011335;28;20042;-67
2023/03/14 01:12:10;;;;;;;13.02;4.00;;;;;;;;;;5014559;28;20046;-67
2023/03/14 01:14:36;;;;;;;17.17;3.60;;;10.60;99.90;;;;;;5017735;28;20121;-68
2023/03/14 01:17:02;;;;;;;13.38;3.53;;;;;;;;;;5017037;28;20084;-67
2023/03/14 01:19:28;;;;;;;15.35;3.67;;;;;;;;;;5008005;28;20056;-67
2023/03/14 01:21:55;;;;;;;17.42;3.90;;;;;;;;;;5007938;28;20132;-68
2023/03/14 01:24:21;;;;;;;16.15;3.35;;;;;;;;;;5010498;28;20873;-67
2023/03/14 01:26:46;;;;;;;13.82;4.72;;;10.40;99.90;;;;;;5009475;28;20050;-67
2023/03/14 01:29:13;;;;;;;19.15;3.70;;;;;;;;;;5010711;28;20849;-68
2023/03/14 01:31:38;;;;;;;21.08;3.72;;;;;;;;;;5006943;28;20045;-67
2023/03/14 01:34:04;;;;;;;12.80;3.72;;;10.40;99.90;;;;;;5012824;28;20078;-67
2023/03/14 01:36:30;;;;;;;18.40;4.28;;;;;;;;;;5014726;28;20089;-68
2023/03/14 01:38:56;;;;;;;14.80;4.18;;;;;;;;;;5005404;28;20045;-68
2023/03/14 01:41:23;;;;;;;12.88;3.13;;;;;;;;;;5006390;28;20108;-67
2023/03/14 01:43:49;;;;;;;14.63;3.40;;;;;;;;;;5007169;28;20049;-67
2023/03/14 01:46:28;;;;;;;15.00;2.85;;;;;;;;;;5006825;28;20132;-67
2023/03/14 01:49:00;;;;;;;13.27;3.38;;;;;;;;;;5008358;28;20053;-67
2023/03/14 01:51:26;;;;;;;12.07;2.67;;;;;;;;;;5014220;28;20038;-68
2023/03/14 01:53:54;;;;;;;17.15;3.35;;;;;;;;;;5015955;28;20034;-68
2023/03/14 01:56:20;;;;;;;15.32;3.58;;;10.40;99.90;;;;;;5017466;28;20051;-67
2023/03/14 01:58:48;;;;;;;14.20;2.88;;;10.60;99.90;;;;;;5013987;28;20061;-67
2023/03/14 02:01:16;;;;;;;13.07;3.75;;;;;;;;;;5011978;28;20499;-67
2023/03/14 02:03:54;;;;;;;14.75;2.85;;;10.60;99.90;;;;;;5006797;28;20049;-68
2023/03/14 02:06:23;;;;;;;13.55;4.55;;;;;;;;;;5008387;28;20903;-67
2023/03/14 02:08:49;;;;;;;12.15;3.42;;;10.60;99.90;;;;;;5006712;28;20169;-67
2023/03/14 02:11:15;;;;;;;14.25;4.10;;;;;;;;;;5007379;28;20754;-67
2023/03/14 02:13:41;;;;;;;9.35;4.28;;;;;;;;;;5007877;28;20119;-68
2023/03/14 02:16:07;;;;;;;9.05;3.42;;;;;;;;;;5013203;28;20053;-67
2023/03/14 02:18:33;;;;;;;14.93;3.25;;;;;;;;;;5011906;28;20045;-68
2023/03/14 02:21:02;;;;;;;10.13;3.30;;;;;;;;;;5019757;28;20049;-68
2023/03/14 02:23:34;;;;;;;12.68;2.72;;;;;;;;;;5016460;28;20045;-68
2023/03/14 02:26:12;;;;;;;10.43;2.72;;;;;;;;;;5019749;28;20124;-68
2023/03/14 02:28:38;;;;;;;10.88;2.53;;;10.30;99.90;;;;;;5005354;28;20491;-67
2023/03/14 02:31:04;;;;;;;10.77;2.42;;;;;;;;;;5008581;28;20034;-68
2023/03/14 02:33:30;;;;;;;11.48;2.67;;;;;;;;;;5010625;28;20041;-68
2023/03/14 02:35:56;;;;;;;9.82;2.75;;;;;;;;;;5008272;28;20041;-68
2023/03/14 02:38:31;;;;;;;10.95;2.65;;;;;;;;;;5016022;28;20038;-68
2023/03/14 02:40:57;;;;;;;7.30;2.45;;;;;;;;;;5004985;28;20682;-67
2023/03/14 02:43:23;;;;;;;10.50;2.65;;;;;;;;;;5007633;28;20130;-67
2023/03/14 02:45:50;;;;;;;9.23;2.85;;;;;;;;;;5007099;28;20055;-68
2023/03/14 02:48:19;;;;;;;9.68;3.78;;;;;;;;;;5009642;28;20044;-68
2023/03/14 02:50:46;;;;;;;7.82;2.97;;;;;;;;;;5011796;28;20045;-68
2023/03/14 02:53:13;;;;;;;11.40;2.85;;;;;;;;;;5016287;28;20261;-68
2023/03/14 02:55:39;;;;;;;11.93;3.13;;;;;;;;;;5013407;28;20053;-68
2023/03/14 02:58:05;;;;;;;15.75;3.67;;;;;;;;;;5009587;28;20578;-68
2023/03/14 03:00:31;;;;;;;7.57;2.58;;;;;;;;;;5008971;28;20401;-68
2023/03/14 03:02:57;;;;;;;12.00;3.65;;;;;;;;;;5013789;28;20034;-68
2023/03/14 03:05:23;;;;;;;12.07;4.00;;;;;;;;;;5010499;28;20056;-68
2023/03/14 03:11:02;;;;;;;16.85;4.82;;;;;;;;;;5005427;28;20045;-68
2023/03/14 03:13:28;;;;;;;14.52;3.92;;;;;;;;;;5006503;28;20050;-68
2023/03/14 03:15:54;;;;;;;15.13;4.43;;;;;;;;;;5013550;28;20037;-68
2023/03/14 03:18:20;;;;;;;16.25;4.53;;;;;;;;;;5006681;28;20073;-68
2023/03/14 03:20:46;;;;;;;12.27;3.80;;;;;;;;;;5006363;28;20038;-68
2023/03/14 03:23:12;;;;;;;18.52;4.93;;;;;;;;;;5008868;28;20092;-67
2023/03/14 03:25:38;;;;;;;15.95;4.32;;;;;;;;;;5016936;28;20049;-68
2023/03/14 03:28:07;;;;;;;16.85;4.97;;;;;;;;;;5004987;28;20662;-68
2023/03/14 03:30:34;;;;;;;22.08;5.15;;;;;;;;;;5006739;28;20042;-67
2023/03/14 03:33:00;;;;;;;13.68;4.95;;;;;;;;;;4998211;28;20041;-67
2023/03/14 03:35:25;;;;;;;22.17;5.57;;;;;;;;;;5011037;28;20038;-67
2023/03/14 03:37:51;;;;;;;14.35;5.70;;;;;;;;;;5004106;28;20050;-68
2023/03/14 03:40:17;;;;;;;12.25;4.80;;;;;;;;;;5004219;28;20069;-67
2023/03/14 03:42:43;;;;;;;15.70;5.28;;;;;;;;;;5012747;28;20487;-67
2023/03/14 03:45:10;;;;;;;13.88;5.20;;;;;;;;;;5016542;28;20041;-67
2023/03/14 03:47:35;;;;;;;11.70;6.13;;;;;;;;;;5011633;28;20052;-67
2023/03/14 03:50:02;;;;;;;14.40;6.90;;;;;;;;;;5007492;28;20033;-67
2023/03/14 03:52:28;;;;;;;21.27;6.22;;;;;;;;;;5008440;28;20049;-67
2023/03/14 03:54:54;;;;;;;17.27;6.78;;;;;;;;;;5006659;28;20046;-67
2023/03/14 03:57:20;;;;;;;13.68;5.85;;;;;;;;;;5006431;28;20466;-68
2023/03/14 03:59:46;;;;;;;19.10;6.43;;;;;;;;;;5003114;28;20057;-67
2023/03/14 04:02:12;;;;;;;15.45;6.85;;;;;;;;;;5006035;28;20510;-67
2023/03/14 04:04:38;;;;;;;15.73;6.13;;;;;;;;;;5011026;28;20144;-67
2023/03/14 04:07:04;;;;;;;16.30;6.97;;;;;;;;;;5010297;28;20041;-67
2023/03/14 04:09:30;;;;;;;16.83;6.70;;;;;;;;;;5004641;28;20042;-67
2023/03/14 04:11:56;;;;;;;15.40;6.68;;;;;;;;;;5010116;28;20037;-67
2023/03/14 04:14:23;;;;;;;21.38;6.30;;;;;;;;;;5010592;28;20086;-67
2023/03/14 04:16:49;;;;;;;13.95;6.25;;;;;;;;;;5010692;28;20048;-67
2023/03/14 04:19:15;;;;;;;19.33;7.03;;;9.60;99.90;;;;;;5003596;28;20059;-67
2023/03/14 04:21:44;;;;;;;15.50;6.25;;;;;;;;;;5006528;28;20048;-67
2023/03/14 04:24:10;;;;;;;19.60;5.63;;;;;;;;;;5005321;28;20053;-67
2023/03/14 04:26:36;;;;;;;15.68;5.63;;;;;;;;;;5015425;28;20050;-67
2023/03/14 04:29:02;;;;;;;19.77;7.18;;;;;;;;;;5006752;28;20040;-67
2023/03/14 04:31:28;;;;;;;16.98;5.70;;;;;;;;;;5008474;28;20075;-67
2023/03/14 04:33:54;;;;;;;25.60;6.32;;;;;;;;;;5007451;28;20045;-67
2023/03/14 04:36:20;;;;;;;12.80;5.13;;;;;;;;;;5013809;28;20778;-67
2023/03/14 04:38:46;;;;;;;17.45;5.05;;;;;;;;;;5011981;28;20045;-68
2023/03/14 04:41:12;;;;;;;18.42;5.90;;;;;;;;;;5017364;28;20042;-67
2023/03/14 04:43:38;;;;;;;12.18;6.13;;;;;;;;;;5015771;28;20496;-67
2023/03/14 04:46:04;;;;;;;14.63;4.53;;;;;;;;;;5022876;28;20045;-67
2023/03/14 04:48:30;;;;;;;14.60;5.70;;;;;;;;;;5016578;28;20050;-67
2023/03/14 04:50:56;;;;;;;18.08;5.05;;;;;;;;;;5009386;28;20041;-67
2023/03/14 04:53:22;;;;;;;14.73;4.88;;;;;;;;;;5016080;28;20099;-67
2023/03/14 04:55:53;;;;;;;14.02;5.18;;;9.60;99.90;;;;;;5020554;28;20053;-67
2023/03/14 04:58:19;;;;;;;14.05;4.97;;;;;;;;;;5010370;28;20100;-67
2023/03/14 05:00:46;;;;;;;20.70;5.18;;;;;;;;;;5024190;28;20562;-67
2023/03/14 05:03:12;;;;;;;16.42;5.13;;;;;;;;;;5014232;28;20766;-67
2023/03/14 05:05:37;;;;;;;13.48;5.43;;;9.70;99.90;;;;;;5013572;28;20049;-67
2023/03/14 05:08:04;;;;;;;10.85;4.57;;;;;;;;;;5011093;28;20093;-67
2023/03/14 05:10:30;;;;;;;15.38;4.47;;;;;;;;;;5009314;28;20042;-67
2023/03/14 05:12:56;;;;;;;16.83;5.20;;;;;;;;;;5008210;28;20042;-67
2023/03/14 05:15:22;;;;;;;13.50;5.03;;;;;;;;;;5011924;28;20798;-67
2023/03/14 05:17:49;;;;;;;16.45;6.00;;;;;;;;;;5013921;28;20045;-67
2023/03/14 05:20:15;;;;;;;17.10;4.95;;;;;;;;;;5021033;28;20613;-67
2023/03/14 05:22:41;;;;;;;15.75;5.47;;;;;;;;;;5010910;28;20423;-67
2023/03/14 05:25:07;;;;;;;13.57;6.22;;;;;;;;;;5017629;28;20084;-67
2023/03/14 05:27:34;;;;;;;19.08;6.07;;;;;;;;;;5012222;28;20499;-67
2023/03/14 05:30:00;;;;;;;13.35;5.72;;;;;;;;;;5020324;28;20898;-67
2023/03/14 05:32:26;;;;;;;23.65;7.18;;;;;;;;;;5013144;28;20069;-67
2023/03/14 05:34:52;;;;;;;16.63;5.53;;;;;;;;;;5013288;28;20073;-67
2023/03/14 05:37:18;;;;;;;15.23;5.85;;;9.50;99.90;;;;;;5007600;28;20138;-67
2023/03/14 05:39:44;;;;;;;17.80;6.20;;;;;;;;;;5012587;28;20057;-67
2023/03/14 05:42:09;;;;;;;17.83;5.95;;;;;;;;;;5011214;28;20041;-67
2023/03/14 05:44:35;;;;;;;13.75;6.05;;;;;;;;;;5008395;28;20133;-67
2023/03/14 05:47:01;;;;;;;16.83;5.85;;;;;;;;;;5011568;28;20103;-67
2023/03/14 05:49:27;;;;;;;19.80;5.93;;;;;;;;;;5006255;28;20415;-67
2023/03/14 05:51:53;;;;;;;14.25;6.45;;;9.30;99.90;;;;;;5008598;28;20077;-67
2023/03/14 05:54:19;;;;;;;14.73;6.32;;;;;;;;;;5008800;28;20121;-67
2023/03/14 05:56:45;;;;;;;18.52;6.45;;;;;;;;;;5008297;28;20064;-67
2023/03/14 05:59:11;;;;;;;12.52;6.03;;;;;;;;;;5004529;28;20156;-67
2023/03/14 06:01:37;;;;;;;15.88;6.03;;;;;;;;;;5008249;28;20054;-67
2023/03/14 06:04:03;;;;;;;14.82;5.32;;;;;;;;;;5008383;28;20769;-67
2023/03/14 06:06:28;;;;;;;11.20;5.47;;;9.40;99.90;;;;;;5009177;28;20053;-67
2023/03/14 06:08:54;;;;;;;15.60;5.97;;;;;;;;;;5006282;28;20131;-67
2023/03/14 06:11:20;;;;;;;11.98;7.28;;;;;;;;;;5009183;28;20775;-67
2023/03/14 06:13:46;;;;;;;15.15;6.15;;;;;;;;;;5013213;28;20390;-67
2023/03/14 06:16:13;;;;;;;15.55;6.32;;;;;;;;;;5013816;28;20073;-67
2023/03/14 06:18:38;;;;;;;17.50;6.15;;;;;;;;;;5017184;28;20052;-67
2023/03/14 06:21:05;;;;;;;12.38;6.00;;;;;;;;;;5011942;28;20677;-67
2023/03/14 06:23:31;;;;;;;10.73;5.72;;;;;;;;;;5010168;28;20123;-67
2023/03/14 06:25:57;;;;;;;12.50;5.57;;;;;;;;;;5020060;28;20064;-67
2023/03/14 06:28:23;;;;;;;17.08;6.32;;;;;;;;;;5018662;28;20798;-67
2023/03/14 06:30:49;;;;;;;13.32;5.70;;;9.30;99.90;;;;;;5007546;28;20095;-67
2023/03/14 06:33:15;;;;;;;11.52;4.93;;;;;;;;;;5006218;28;20515;-67
2023/03/14 06:35:41;;;;;;;11.70;4.90;;;;;;;;;;5007940;28;20163;-67
2023/03/14 06:38:07;;;;;;;10.48;5.00;;;;;;;;;;5009951;28;20080;-67
2023/03/14 06:40:32;;;;;;;10.23;4.80;;;;;;;;;;5013105;28;20092;-67
2023/03/14 06:42:58;;;;;;;9.80;4.10;;;;;;;;;;5017548;28;20823;-67
2023/03/14 06:45:24;;;;;;;8.07;4.15;;;9.30;99.90;;;;;;5013429;28;20045;-67
2023/03/14 06:47:50;;;;;;;10.02;4.18;;;;;;;;;;5007132;28;20480;-67
2023/03/14 06:50:16;;;;;;;10.80;3.60;;;;;;;;;;5005247;28;20740;-67
2023/03/14 06:52:47;;;;;;;8.43;3.60;;;;;;;;;;5016694;28;20069;-67
2023/03/14 06:55:13;;;;;;;8.57;3.10;;;;;;;;;;5023281;28;20067;-67
2023/03/14 06:57:39;;;;;;;3.75;1.95;;;;;;;;;;5016095;28;20063;-67
2023/03/14 07:00:05;;;;;;;5.88;1.73;;;;;;;;;;5004139;28;20084;-67
2023/03/14 07:02:31;;;;;;;4.53;1.45;;;;;;;;;;5018766;28;20435;-67
2023/03/14 07:04:57;;;;;;;6.10;1.40;;;;;;;;;;5014389;28;20080;-67
2023/03/14 07:07:23;;;;;;;7.13;1.95;;;;;;;;;;5017072;28;20187;-67
2023/03/14 07:09:49;;;;;;;5.13;1.52;;;;;;;;;;5011268;28;20042;-69
2023/03/14 07:12:15;;;;;;;9.13;1.60;;;8.20;99.90;;;;;;5018090;28;20041;-69
2023/03/14 07:14:41;;;;;;;7.80;1.65;;;;;;;;;;5008403;28;20527;-69
2023/03/14 07:17:07;;;;;;;12.77;2.28;;;;;;;;;;5011767;28;20098;-69
2023/03/14 07:19:32;;;;;;;6.45;1.85;;;;;;;;;;5007624;28;20774;-69
2023/03/14 07:21:58;;;;;;;12.52;2.83;;;;;;;;;;5013005;28;20048;-69
2023/03/14 07:24:24;;;;;;;7.13;1.75;;;;;;;;;;5009483;28;20037;-69
2023/03/14 07:26:50;;;;;;;10.63;1.83;;;;;;;;;;5010298;28;20099;-68
2023/03/14 07:29:16;;;;;;;7.70;1.70;;;;;;;;;;5009005;28;20041;-68
2023/03/14 07:31:42;;;;;;;4.78;1.75;;;;;;;;;;5013026;28;20503;-68
2023/03/14 07:34:09;;;;;;;11.63;1.50;;;;;;;;;;5010978;28;20041;-69
2023/03/14 07:36:35;;;;;;;5.63;1.98;;;;;;;;;;5012109;28;20049;-69
2023/03/14 07:39:01;;;;;;;5.00;1.05;;;;;;;;;;5021666;28;20041;-67
2023/03/14 07:41:27;;;;;;;4.88;1.10;;;;;;;;;;5017735;28;20080;-68
2023/03/14 07:43:53;;;;;;;4.07;0.90;;;;;;;;;;5014448;28;20095;-68
2023/03/14 07:46:19;;;;;;;4.78;1.25;;;;;;;;;;5015758;28;20045;-68
2023/03/14 07:48:45;;;;;;;3.15;0.90;;;;;;;;;;5019138;28;20052;-68
2023/03/14 07:51:11;;;;;;;5.28;1.70;;;;;;;;;;5018888;28;20045;-67
2023/03/14 07:53:39;;;;;;;4.53;1.23;;;;;;;;;;5017332;28;20042;-67
2023/03/14 07:56:05;;;;;;;7.03;1.13;;;;;;;;;;4999991;28;20049;-68
2023/03/14 07:58:31;;;;;;;4.90;1.35;;;;;;;;;;5006441;28;20069;-68
2023/03/14 08:00:58;;;;;;;4.50;1.08;;;;;;;;;;5003016;28;20049;-67
2023/03/14 08:03:24;;;;;;;4.03;1.52;;;;;;;;;;5012427;28;20049;-66
2023/03/14 08:05:51;;;;;;;4.88;1.48;;;6.40;99.90;;;;;;5009809;28;20052;-66
2023/03/14 08:08:17;;;;;;;2.65;1.35;;;;;;;;;;5011018;28;20040;-67
2023/03/14 08:10:44;;;;;;;5.10;1.17;;;;;;;;;;5018070;28;20402;-67
2023/03/14 08:13:10;;;;;;;4.80;1.10;;;;;;;;;;5023920;28;20399;-66
2023/03/14 08:15:36;;;;;;;6.18;2.15;;;;;;;;;;5020390;28;20098;-68
2023/03/14 08:18:03;;;;;;;3.80;1.55;;;;;;;;;;5013806;28;20057;-66
2023/03/14 08:20:29;;;;;;;3.80;1.27;;;;;;;;;;5022758;28;20507;-65
2023/03/14 08:22:59;;;;;;;6.50;1.42;;;;;;;;;;5013158;28;20488;-65
2023/03/14 08:25:25;;;;;;;9.43;2.00;;;;;;;;;;5010278;28;20046;-67
2023/03/14 08:27:51;;;;;;;4.85;1.38;;;;;;;;;;5011836;28;20050;-66
2023/03/14 08:30:18;;;;;;;2.55;1.10;;;;;;;;;;5013685;28;20045;-68
2023/03/14 08:32:44;;;;;;;6.65;1.80;;;;;;;;;;5012083;28;20111;-68
2023/03/14 08:35:11;;;;;;;6.65;1.20;;;;;;;;;;5012016;28;20037;-68
2023/03/14 08:37:37;;;;;;;6.38;1.88;;;;;;;;;;5001901;28;20046;-68
2023/03/14 08:40:06;;;;;;;3.67;1.27;;;;;;;;;;5019508;28;20148;-68
2023/03/14 08:42:32;;;;;;;5.32;1.33;;;;;;;;;;5012996;28;20054;-68
2023/03/14 08:44:58;;;;;;;7.85;2.42;;;;;;;;;;5020523;28;20053;-68
2023/03/14 08:47:24;;;;;;;4.45;1.55;;;;;;;;;;5020024;28;20042;-69
2023/03/14 08:49:50;;;;;;;4.43;1.42;;;;;;;;;;5007864;28;20038;-68
2023/03/14 08:52:18;;;;;;;3.97;1.80;;;;;;;;;;5016643;28;20037;-68
2023/03/14 08:54:44;;;;;;;9.70;1.60;;;7.50;99.90;;;;;;5016260;28;20046;-68
2023/03/14 08:57:10;;;;;;;6.38;1.67;;;7.50;99.90;;;;;;5013286;28;20076;-69
2023/03/14 08:59:36;;;;;;;6.95;2.03;;;;;;;;;;5019497;28;20057;-68
2023/03/14 09:02:03;;;;;;;12.35;2.58;;;;;;;;;;5005377;28;20075;-68
2023/03/14 09:04:29;;;;;;;9.98;1.70;;;;;;;;;;5011857;28;20495;-68
2023/03/14 09:06:57;;;;;;;8.57;2.10;;;;;;;;;;5009317;28;20038;-68
2023/03/14 09:09:23;;;;;;;10.77;2.35;;;;;;;;;;5009326;28;20089;-68
2023/03/14 09:11:49;;;;;;;8.80;2.22;;;;;;;;;;5007876;28;20139;-68
2023/03/14 09:14:15;;;;;;;14.48;2.13;;;;;;;;;;5012183;28;20053;-68
2023/03/14 09:16:41;;;;;;;12.35;2.67;;;;;;;;;;5007256;28;20113;-68
2023/03/14 09:19:07;;;;;;;13.90;2.42;;;;;;;;;;5007268;28;20514;-68
2023/03/14 09:21:33;;;;;;;17.90;2.95;;;;;;;;;;5005847;28;20069;-68
2023/03/14 09:23:59;;;;;;;15.38;2.55;;;;;;;;;;5008968;28;20084;-68
2023/03/14 09:26:25;;;;;;;12.15;2.42;;;;;;;;;;5014086;28;20050;-68
2023/03/14 09:28:51;;;;;;;11.15;2.90;;;;;;;;;;5011149;28;20091;-68
2023/03/14 09:31:17;;;;;;;13.45;2.97;;;;;;;;;;5011932;28;20076;-68
2023/03/14 09:33:44;;;;;;;15.18;3.92;;;;;;;;;;5016540;28;20045;-69
2023/03/14 09:36:10;;;;;;;16.33;3.08;;;;;;;;;;5015701;28;20076;-68
2023/03/14 09:38:37;;;;;;;11.23;2.88;;;;;;;;;;5006566;28;20057;-68
2023/03/14 09:41:03;;;;;;;14.27;2.97;;;;;;;;;;5007413;28;20061;-68
2023/03/14 09:43:34;;;;;;;20.77;3.60;;;;;;;;;;5024007;28;20053;-68
2023/03/14 09:46:02;;;;;;;13.20;3.38;;;;;;;;;;5018648;28;20145;-68
2023/03/14 09:48:29;;;;;;;19.08;3.58;;;;;;;;;;5019333;28;20049;-68
2023/03/14 09:50:57;;;;;;;12.95;3.30;;;;;;;;;;5006928;28;20120;-68
2023/03/14 09:53:28;;;;;;;21.98;3.45;;;;;;;;;;5006832;28;20045;-68
2023/03/14 09:55:55;;;;;;;12.90;3.25;;;;;;;;;;5009591;28;20034;-68
2023/03/14 09:58:23;;;;;;;15.02;3.53;;;7.70;99.90;;;;;;5011061;28;20115;-68
2023/03/14 10:00:53;;;;;;;14.65;2.88;;;;;;;;;;5016609;28;20042;-68
2023/03/14 10:03:31;;;;;;;16.00;3.67;;;;;;;;;;5005801;28;20045;-68
2023/03/14 10:05:57;;;;;;;17.42;3.00;;;;;;;;;;5008563;28;20038;-68
2023/03/14 10:08:23;;;;;;;16.13;3.10;;;;;;;;;;5005262;28;20049;-68
2023/03/14 10:10:49;;;;;;;23.30;5.22;;;;;;;;;;5005453;28;20044;-68
2023/03/14 10:13:24;;;;;;;15.93;3.80;;;;;;;;;;5006882;28;20049;-68
2023/03/14 10:15:55;;;;;;;19.23;4.43;;;;;;;;;;5007139;28;20168;-68
2023/03/14 10:18:23;;;;;;;20.95;3.45;;;7.60;99.90;;;;;;5011413;28;20359;-68
2023/03/14 10:20:50;;;;;;;15.48;3.83;;;;;;;;;;5013722;28;20053;-68
2023/03/14 10:23:16;;;;;;;21.08;3.08;;;;;;;;;;5016110;28;20054;-68
2023/03/14 10:25:43;;;;;;;22.45;4.07;;;;;;;;;;5017455;28;20067;-68
2023/03/14 10:28:24;;;;;;;23.08;3.55;;;;;;;;;;5018604;28;20053;-68
2023/03/14 10:30:50;;;;;;;16.20;3.63;;;;;;;;;;5021471;28;20068;-68
2023/03/14 10:33:23;;;;;;;15.40;3.28;;;8.90;99.90;;;;;;5020014;28;20411;-68
2023/03/14 10:35:55;;;;;;;15.85;3.35;;;;;;;;;;5008647;28;20091;-68
2023/03/14 10:38:23;;;;;;;12.80;3.65;;;;;;;;;;5011029;28;20057;-69
2023/03/14 10:40:52;;;;;;;10.35;3.15;;;;;;;;;;5005610;28;20763;-68
2023/03/14 10:43:21;;;;;;;15.93;3.10;;;;;;;;;;5007589;28;20115;-69
2023/03/14 10:45:52;;;;;;;13.93;2.58;;;;;;;;;;5010044;28;20045;-69
2023/03/14 10:48:20;;;;;;;14.93;2.65;;;;;;;;;;5010462;28;20042;-69
2023/03/14 10:50:50;;;;;;;18.55;3.08;;;;;;;;;;5009659;28;20100;-69
2023/03/14 10:53:18;;;;;;;13.95;2.58;;;;;;;;;;5015412;28;20033;-68
2023/03/14 10:55:45;;;;;;;12.45;2.55;;;;;;;;;;5009532;28;20075;-68
2023/03/14 10:58:23;;;;;;;20.83;4.28;;;;;;;;;;4974191;28;1206134;-68
2023/03/14 11:00:52;;;;;;;14.63;3.03;;;;;;;;;;5008337;28;20060;-68
2023/03/14 11:03:20;;;;;;;15.90;2.72;;;;;;;;;;5008232;28;20134;-69
2023/03/14 11:05:46;;;;;;;11.88;1.90;;;;;;;;;;5010541;28;20702;-68
2023/03/14 11:08:14;;;;;;;11.55;2.55;;;;;;;;;;5017484;28;20045;-68
2023/03/14 11:10:45;;;;;;;18.42;2.88;;;9.00;99.90;;;;;;5004619;28;20033;-68
2023/03/14 11:13:29;;;;;;;14.07;2.47;;;;;;;;;;5017608;28;20041;-68
2023/03/14 11:16:02;;;;;;;9.47;2.93;;;;;;;;;;5021667;28;20096;-68
2023/03/14 11:18:41;;;;;;;13.07;2.65;;;;;;;;;;5014273;28;20284;-68
2023/03/14 11:21:12;;;;;;;6.25;2.22;;;;;;;;;;5010020;28;20495;-69
2023/03/14 11:23:57;;;;;;;11.02;1.83;;;;;;;;;;5005189;28;20050;-68
2023/03/14 11:26:52;;;;;;;10.38;2.33;;;9.50;99.90;;;;;;5006577;28;20045;-68
2023/03/14 11:29:18;;;;;;;10.27;2.33;;;;;;;;;;5011310;28;20041;-68
2023/03/14 11:31:45;;;;;;;10.40;2.22;;;;;;;;;;5014077;28;20037;-68
2023/03/14 11:34:21;;;;;;;12.18;2.33;;;;;;;;;;4994470;28;20034;-68
2023/03/14 11:37:01;;;;;;;8.82;2.15;;;9.20;99.90;;;;;;5015504;28;20049;-69
2023/03/14 11:39:35;;;;;;;11.50;2.25;;;;;;;;;;5003418;28;20105;-68
2023/03/14 11:42:01;;;;;;;8.25;2.15;;;;;;;;;;5021240;28;20605;-68
2023/03/14 11:44:33;;;;;;;8.93;2.20;;;;;;;;;;5013468;28;20069;-68
2023/03/14 11:47:15;;;;;;;10.65;1.60;;;;;;;;;;5006701;28;20747;-68
2023/03/14 11:49:46;;;;;;;9.68;1.85;;;;;;;;;;5022111;28;20045;-68
2023/03/14 11:52:20;;;;;;;9.77;1.92;;;;;;;;;;5010200;28;20657;-68
2023/03/14 11:55:00;;;;;;;6.47;1.80;;;;;;;;;;5013435;28;20037;-68
2023/03/14 11:57:26;;;;;;;6.90;1.90;;;;;;;;;;5012157;28;20068;-68
2023/03/14 11:59:52;;;;;;;5.13;1.88;;;;;;;;;;5014314;28;20155;-68
2023/03/14 12:02:28;;;;;;;4.43;1.30;;;;;;;;;;5009254;28;20492;-68
2023/03/14 12:04:54;;;;;;;7.35;1.67;;;;;;;;;;5013507;28;20029;-68
2023/03/14 12:07:23;;;;;;;4.20;1.40;;;;;;;;;;5007178;28;20527;-68
2023/03/14 12:09:50;;;;;;;7.30;2.05;;;;;;;;;;5004654;28;20052;-68
2023/03/14 12:12:20;;;;;;;8.45;1.48;;;;;;;;;;5010747;28;20041;-68
2023/03/14 12:14:58;;;;;;;8.38;1.83;;;;;;;;;;5004687;28;20041;-68
2023/03/14 12:17:38;;;;;;;5.65;1.25;;;;;;;;;;5012816;28;20462;-68
2023/03/14 12:20:21;;;;;;;6.28;1.80;;;;;;;;;;5003533;28;20057;-68
2023/03/14 12:22:50;;;;;;;7.50;1.60;;;;;;;;;;5016258;28;20507;-68
2023/03/14 12:25:21;;;;;;;11.27;2.25;;;;;;;;;;5010473;28;20041;-68
2023/03/14 12:28:12;;;;;;;8.48;2.45;;;9.30;99.90;;;;;;5010428;28;20046;-68
2023/03/14 12:30:42;;;;;;;8.27;2.05;;;;;;;;;;4989285;28;20057;-68
2023/03/14 12:33:11;;;;;;;8.77;1.70;;;;;;;;;;5015892;28;20045;-68
2023/03/14 12:35:50;;;;;;;9.27;2.10;;;;;;;;;;5011511;28;20041;-68
2023/03/14 12:38:25;;;;;;;7.68;2.05;;;;;;;;;;5009627;28;20049;-68
2023/03/14 12:40:51;;;;;;;;;;;;;;;;;;5009258;28;20046;-69
2023/03/14 12:43:30;;;;;;;11.40;2.13;;;;;;;;;;5011059;28;20566;-68
2023/03/14 12:46:16;;;;;;;12.98;2.35;;;;;;;;;;5022888;28;20041;-68
2023/03/14 12:48:42;;;;;;;;;;;;;;;;;;5011428;28;20064;-68
2023/03/14 12:51:19;;;;;;;13.77;2.80;;;;;;;;;;5005319;28;19921;-69
2023/03/14 12:54:04;;;;;;;14.20;2.40;;;;;;;;;;5006574;28;20025;-68
2023/03/14 12:56:41;;;;;;;9.73;2.00;;;;;;;;;;5007449;28;20041;-68
2023/03/14 12:59:28;;;;;;;5.07;1.60;;;;;;;;;;5009508;28;20054;-68
2023/03/14 13:02:05;;;;;;;9.55;2.08;;;9.10;99.90;;;;;;5007440;28;20550;-68
2023/03/14 13:04:45;;;;;;;8.77;1.80;;;;;;;;;;5009748;28;20052;-68
2023/03/14 13:07:13;;;;;;;10.52;2.63;;;;;;;;;;5016537;28;20056;-68
2023/03/14 13:09:53;;;;;;;11.50;2.40;;;;;;;;;;5015048;28;20780;-68
2023/03/14 13:12:23;;;;;;;7.60;1.90;;;;;;;;;;5016100;28;20092;-68
2023/03/14 13:14:51;;;;;;;5.63;1.77;;;8.50;99.90;;;;;;5010255;28;20045;-68
2023/03/14 13:17:26;;;;;;;5.80;1.80;;;;;;;;;;5016696;28;20046;-68
2023/03/14 13:19:53;;;;;;;;;;;8.40;99.90;;;;;;5016420;28;20060;-68
2023/03/14 13:22:27;;;;;;;4.95;1.27;;;;;;;;;;5008696;28;20462;-68
2023/03/14 13:25:00;;;;;;;7.25;1.67;;;8.80;99.90;;;;;;5009654;28;20861;-68
2023/03/14 13:27:26;;;;;;;6.70;1.67;;;;;;;;;;5012235;28;20046;-68
2023/03/14 13:29:53;;;;;;;6.05;1.58;;;;;;;;;;5009437;28;20396;-68
2023/03/14 13:32:19;;;;;;;7.25;1.70;;;;;;;;;;5010701;28;20045;-68
2023/03/14 13:34:47;;;;;;;5.15;1.77;;;;;;;;;;5008082;28;20045;-68
2023/03/14 13:37:30;;;;;;;5.47;1.92;;;8.80;99.90;;;;;;5014997;28;20054;-68
2023/03/14 13:39:57;;;;;;;7.03;1.40;;;;;;;;;;5005951;28;20674;-68
2023/03/14 13:42:28;;;;;;;6.43;1.90;;;;;;;;;;5007012;28;20038;-68
2023/03/14 13:44:55;;;;;;;8.73;1.70;;;;;;;;;;5007585;28;20045;-68
2023/03/14 13:47:22;;;;;;;9.70;1.80;;;;;;;;;;5007507;28;20096;-68
2023/03/14 13:49:49;;;;;;;9.95;1.80;;;;;;;;;;5007286;28;20041;-68
2023/03/14 13:52:28;;;;;;;8.40;1.70;;;;;;;;;;5021370;28;20045;-68
2023/03/14 13:54:55;;;;;;;4.55;1.27;;;;;;;;;;5009868;28;20056;-68
2023/03/14 13:57:20;;;;;;;8.32;1.90;;;8.50;99.90;;;;;;5008977;28;20054;-68
2023/03/14 13:59:58;;;;;;;6.65;1.83;;;;;;;;;;5009448;28;20042;-68
2023/03/14 14:02:25;;;;;;;7.72;1.90;;;;;;;;;;5016361;28;20053;-68
2023/03/14 14:04:50;;;;;;;5.43;1.88;;;8.30;99.90;;;;;;5011579;28;20054;-68
2023/03/14 14:07:20;;;;;;;9.80;2.05;;;;;;;;;;5013275;28;20120;-68
2023/03/14 14:09:51;;;;;;;7.88;1.85;;;;;;;;;;5005907;28;20076;-68
2023/03/14 14:12:18;;;;;;;6.82;1.83;;;;;;;;;;5005806;28;20377;-68
2023/03/14 14:15:03;;;;;;;4.75;1.50;;;;;;;;;;5009294;28;20041;-68
2023/03/14 14:18:03;;;;;;;9.40;1.90;;;8.30;99.90;;;;;;5009245;28;20503;-68
2023/03/14 14:20:33;;;;;;;6.57;1.92;;;;;;;;;;5012654;28;20049;-68
2023/03/14 14:23:03;;;;;;;7.60;1.77;;;8.50;99.90;;;;;;5011153;28;20056;-68
2023/03/14 14:25:29;;;;;;;5.97;2.33;;;;;;;;;;5014267;28;20050;-68
2023/03/14 14:27:55;;;;;;;8.35;1.67;;;;;;;;;;5005506;28;20295;-68
2023/03/14 14:30:21;;;;;;;10.48;2.20;;;;;;;;;;5010794;28;22304;-68
2023/03/14 14:32:49;;;;;;;6.93;2.22;;;;;;;;;;5016068;28;20095;-68